Terminal Aerodrome Forecast
Issued by NWS

Home | Current Version | Previous Version | Graphics & Text | Print | Product List | Glossary On
Versions: 1 2 3 4 5 6 7 8 9 10 11 12 13 14 15 16
853
FTUS43 KMPX 230248 AAA
TAFAXN
TAF AMD
KAXN 230248Z 2303/2324 20008KT P6SM SKC
     FM231900 25006KT P6SM SCT060=

USA.gov is the U.S. government's official web portal to all federal, state and local government web resources and services.